Terminal Aerodrome Forecast
Issued by NWS Wilmington, OH

Current Version | Previous Version | Graphics & Text | Print | Product List | Glossary On
Versions: 1 2 3 4 5 6 7 8 9 10 11 12 13 14
968
FTUS41 KILN 181134
TAFILN
TAF
KILN 181134Z 1812/1912 09005KT P6SM SCT050
     FM181500 21005KT P6SM SCT050
     FM190000 VRB03KT P6SM SCT250
     FM190800 VRB03KT 4SM BR SCT250=

USA.gov is the U.S. government's official web portal to all federal, state and local government web resources and services.